createdAt,value
2022-09-17T00:00:42.700Z,90.78
2022-09-17T00:01:45.488Z,89.61
2022-09-17T00:02:49.803Z,88.73
2022-09-17T00:03:52.373Z,89.51
2022-09-17T00:04:53.753Z,89.46
2022-09-17T00:05:59.779Z,89.10
2022-09-17T00:07:01.324Z,89.95
2022-09-17T00:08:03.193Z,89.89
2022-09-17T00:09:06.374Z,90.33
2022-09-17T00:10:08.352Z,89.75
2022-09-17T00:11:11.356Z,89.56
2022-09-17T00:12:12.906Z,90.20
2022-09-17T00:13:14.696Z,90.03
2022-09-17T00:14:17.618Z,89.64
2022-09-17T00:15:21.143Z,89.71
2022-09-17T00:16:26.593Z,89.58
2022-09-17T00:17:29.394Z,90.09
2022-09-17T00:18:30.844Z,90.12
2022-09-17T00:19:32.244Z,89.17
2022-09-17T00:20:38.529Z,90.20
2022-09-17T00:21:40.879Z,90.03
2022-09-17T00:22:42.365Z,90.35
2022-09-17T00:23:44.143Z,90.23
2022-09-17T00:24:45.577Z,90.70
2022-09-17T00:25:46.992Z,90.12
2022-09-17T00:26:49.216Z,90.17
2022-09-17T00:27:50.648Z,90.45
2022-09-17T00:28:53.557Z,90.21
2022-09-17T00:29:54.980Z,90.18
2022-09-17T00:30:56.488Z,91.01
2022-09-17T00:31:57.975Z,89.98
2022-09-17T00:33:00.991Z,89.99
2022-09-17T00:34:04.252Z,90.01
2022-09-17T00:35:06.890Z,89.91
2022-09-17T00:36:08.486Z,89.70
2022-09-17T00:37:09.915Z,89.88
2022-09-17T00:38:11.668Z,90.28
2022-09-17T00:39:13.324Z,89.98
2022-09-17T00:40:14.914Z,90.42
2022-09-17T00:41:16.555Z,90.68
2022-09-17T00:42:19.486Z,89.69
2022-09-17T00:43:42.312Z,89.57
2022-09-17T00:44:50.572Z,90.22
2022-09-17T00:45:52.040Z,90.14
2022-09-17T00:46:53.548Z,90.38
2022-09-17T00:47:57.722Z,90.60
2022-09-17T00:49:03.013Z,90.67
2022-09-17T00:50:07.517Z,90.10
2022-09-17T00:51:12.205Z,90.58
2022-09-17T00:52:18.199Z,90.18
2022-09-17T00:53:22.535Z,89.99
2022-09-17T00:54:24.713Z,90.26
2022-09-17T00:55:30.333Z,89.91
2022-09-17T00:56:33.820Z,89.54
2022-09-17T00:57:35.900Z,89.67
2022-09-17T00:58:41.237Z,89.96
2022-09-17T00:59:43.047Z,90.52
2022-09-17T01:00:44.716Z,89.97
2022-09-17T01:01:46.201Z,89.96
2022-09-17T01:02:47.747Z,89.73
2022-09-17T01:03:49.204Z,89.80
2022-09-17T01:04:51.985Z,90.03
2022-09-17T01:06:02.376Z,89.85
2022-09-17T01:07:11.667Z,90.05
2022-09-17T01:08:28.764Z,90.31
2022-09-17T01:09:43.295Z,89.59
2022-09-17T01:11:02.992Z,89.65
2022-09-17T01:12:21.171Z,89.56
2022-09-17T01:13:31.684Z,90.50
2022-09-17T01:14:55.725Z,90.47
2022-09-17T01:16:05.441Z,90.18
2022-09-17T01:17:14.929Z,89.67
2022-09-17T01:18:28.472Z,89.63
2022-09-17T01:19:55.920Z,89.91
2022-09-17T01:21:34.824Z,89.63
2022-09-17T01:22:50.449Z,89.79
2022-09-17T01:24:24.111Z,89.17
2022-09-17T01:25:33.532Z,89.10
2022-09-17T01:27:00.120Z,88.98
2022-09-17T01:28:27.108Z,88.99
2022-09-17T01:29:48.566Z,89.81
2022-09-17T01:31:07.152Z,89.45
2022-09-17T01:32:12.673Z,89.28
2022-09-17T01:33:20.430Z,89.84
2022-09-17T01:34:30.441Z,89.82
2022-09-17T01:35:35.954Z,89.87
2022-09-17T01:36:47.166Z,89.74
2022-09-17T01:37:57.910Z,89.33
2022-09-17T01:39:06.141Z,90.10
2022-09-17T01:40:12.274Z,89.36
2022-09-17T01:41:27.098Z,89.68
2022-09-17T01:42:37.635Z,89.00
2022-09-17T01:43:46.518Z,89.46
2022-09-17T01:44:55.928Z,89.07
2022-09-17T01:46:04.711Z,89.45
2022-09-17T01:47:11.696Z,89.56
2022-09-17T01:48:16.630Z,89.31
2022-09-17T01:49:21.837Z,89.57
2022-09-17T01:50:27.254Z,89.41
2022-09-17T01:51:35.560Z,89.24
2022-09-17T01:52:39.762Z,89.60
2022-09-17T01:53:45.905Z,90.46
2022-09-17T01:54:51.077Z,89.51
2022-09-17T01:55:56.940Z,89.16
2022-09-17T01:57:01.649Z,88.84
2022-09-17T01:58:08.009Z,89.30
2022-09-17T01:59:15.720Z,88.88
2022-09-17T02:00:17.837Z,88.34
2022-09-17T02:01:24.661Z,88.31
2022-09-17T02:02:29.133Z,88.97
2022-09-17T02:03:35.334Z,88.31
2022-09-17T02:04:41.522Z,88.27
2022-09-17T02:05:47.903Z,88.82
2022-09-17T02:06:57.379Z,88.18
2022-09-17T02:08:06.457Z,88.54
2022-09-17T02:09:15.597Z,88.54
2022-09-17T02:10:20.395Z,88.69
2022-09-17T02:11:22.687Z,89.10
2022-09-17T02:12:31.585Z,89.00
2022-09-17T02:13:38.369Z,88.54
2022-09-17T02:14:46.854Z,88.80
2022-09-17T02:15:55.457Z,89.54
2022-09-17T02:17:03.197Z,88.98
2022-09-17T02:18:08.670Z,89.23
2022-09-17T02:19:16.600Z,89.50
2022-09-17T02:20:23.154Z,90.16
2022-09-17T02:21:35.741Z,89.91
2022-09-17T02:22:41.885Z,89.99
2022-09-17T02:23:47.684Z,90.30
2022-09-17T02:25:00.025Z,90.56
2022-09-17T02:26:07.128Z,90.68
2022-09-17T02:27:15.677Z,90.27
2022-09-17T02:28:23.392Z,90.45
2022-09-17T02:29:34.587Z,90.95
2022-09-17T02:30:36.056Z,90.72
2022-09-17T02:31:37.697Z,90.56
2022-09-17T02:32:41.074Z,90.61
2022-09-17T02:33:48.204Z,90.61
2022-09-17T02:34:49.594Z,90.58
2022-09-17T02:35:51.124Z,90.34
2022-09-17T02:36:52.560Z,90.69
2022-09-17T02:37:53.939Z,90.76
2022-09-17T02:38:59.391Z,90.76
2022-09-17T02:40:01.343Z,90.58
2022-09-17T02:41:13.200Z,90.31
2022-09-17T02:42:23.322Z,90.65
2022-09-17T02:43:34.701Z,90.66
2022-09-17T02:44:45.240Z,90.85
2022-09-17T02:46:00.200Z,90.49
2022-09-17T02:47:18.441Z,90.61
2022-09-17T02:48:41.729Z,90.50
2022-09-17T02:49:57.691Z,90.38
2022-09-17T02:51:11.609Z,90.63
2022-09-17T02:52:23.799Z,90.71
2022-09-17T02:53:35.990Z,91.18
2022-09-17T02:54:44.762Z,91.12
2022-09-17T02:55:52.515Z,91.24
2022-09-17T02:57:05.013Z,91.37
2022-09-17T02:58:17.243Z,91.55
2022-09-17T02:59:24.588Z,91.46
2022-09-17T03:00:26.092Z,91.28
2022-09-17T03:01:32.942Z,91.19
2022-09-17T03:02:40.784Z,91.41
2022-09-17T03:03:45.828Z,91.39
2022-09-17T03:04:49.391Z,91.61
2022-09-17T03:05:51.423Z,91.03
2022-09-17T03:06:53.275Z,90.77
2022-09-17T03:07:55.334Z,90.99
2022-09-17T03:08:56.736Z,91.14
2022-09-17T03:09:58.143Z,91.49
2022-09-17T03:10:59.587Z,90.89
2022-09-17T03:12:01.384Z,91.01
2022-09-17T03:13:02.825Z,91.21
2022-09-17T03:14:04.312Z,91.27
2022-09-17T03:15:06.511Z,91.17
2022-09-17T03:16:08.323Z,91.67
2022-09-17T03:17:10.456Z,91.42
2022-09-17T03:18:14.403Z,90.76
2022-09-17T03:19:17.159Z,91.25
2022-09-17T03:20:18.607Z,91.23
2022-09-17T03:21:19.990Z,91.38
2022-09-17T03:22:21.553Z,91.06
2022-09-17T03:23:23.014Z,91.27
2022-09-17T03:24:24.746Z,90.77
2022-09-17T03:25:26.140Z,90.84
2022-09-17T03:26:27.538Z,90.84
2022-09-17T03:27:28.944Z,90.38
2022-09-17T03:28:30.374Z,90.43
2022-09-17T03:29:31.805Z,89.95
2022-09-17T03:30:33.303Z,90.00
2022-09-17T03:31:34.921Z,90.03
2022-09-17T03:32:36.387Z,90.39
2022-09-17T03:33:37.805Z,90.56
2022-09-17T03:34:40.568Z,89.87
2022-09-17T03:35:42.834Z,89.73
2022-09-17T03:36:44.340Z,89.50
2022-09-17T03:37:45.779Z,89.98
2022-09-17T03:38:47.201Z,89.46
2022-09-17T03:39:48.679Z,89.90
2022-09-17T03:40:59.893Z,90.45
2022-09-17T03:42:01.556Z,90.08
2022-09-17T03:43:03.081Z,90.37
2022-09-17T03:44:04.728Z,90.34
2022-09-17T03:45:07.576Z,90.13
2022-09-17T03:46:09.014Z,90.62
2022-09-17T03:47:10.474Z,90.04
2022-09-17T03:48:11.857Z,90.19
2022-09-17T03:49:13.353Z,90.67
2022-09-17T03:50:16.332Z,91.04
2022-09-17T03:51:17.851Z,91.08
2022-09-17T03:52:19.297Z,91.25
2022-09-17T03:53:20.781Z,91.25
2022-09-17T03:54:22.364Z,91.67
2022-09-17T03:55:23.759Z,91.32
2022-09-17T03:56:25.200Z,91.13
2022-09-17T03:57:26.612Z,91.38
2022-09-17T03:58:28.505Z,91.15
2022-09-17T03:59:29.918Z,91.32
2022-09-17T04:00:31.631Z,91.42
2022-09-17T04:01:33.127Z,91.65
2022-09-17T04:02:34.772Z,91.78
2022-09-17T04:03:36.197Z,91.79
2022-09-17T04:04:37.587Z,91.88
2022-09-17T04:05:40.338Z,92.23
2022-09-17T04:06:41.746Z,92.04
2022-09-17T04:07:43.157Z,92.16
2022-09-17T04:08:44.604Z,91.94
2022-09-17T04:09:45.999Z,91.98
2022-09-17T04:10:47.903Z,92.12
2022-09-17T04:11:49.409Z,92.36
2022-09-17T04:12:51.107Z,92.12
2022-09-17T04:13:52.494Z,91.95
2022-09-17T04:14:53.910Z,91.65
2022-09-17T04:15:55.374Z,91.80
2022-09-17T04:16:58.682Z,91.38
2022-09-17T04:18:00.066Z,91.51
2022-09-17T04:19:01.470Z,91.66
2022-09-17T04:20:03.727Z,91.69
2022-09-17T04:21:06.600Z,92.09
2022-09-17T04:22:08.030Z,92.27
2022-09-17T04:23:10.940Z,92.72
2022-09-17T04:24:12.363Z,92.73
2022-09-17T04:25:13.970Z,93.28
2022-09-17T04:26:15.386Z,93.29
2022-09-17T04:27:16.835Z,93.11
2022-09-17T04:28:18.215Z,93.63
2022-09-17T04:29:19.633Z,93.93
2022-09-17T04:30:21.081Z,94.13
2022-09-17T04:31:22.626Z,94.20
2022-09-17T04:32:24.135Z,94.27
2022-09-17T04:33:25.745Z,94.43
2022-09-17T04:34:27.176Z,94.57
2022-09-17T04:35:28.666Z,94.90
2022-09-17T04:36:31.397Z,94.54
2022-09-17T04:37:32.791Z,94.29
2022-09-17T04:38:34.197Z,94.24
2022-09-17T04:39:35.592Z,93.73
2022-09-17T04:40:37.109Z,94.23
2022-09-17T04:41:38.625Z,94.34
2022-09-17T04:42:40.026Z,94.13
2022-09-17T04:43:41.399Z,94.49
2022-09-17T04:44:42.812Z,94.28
2022-09-17T04:45:45.891Z,93.92
2022-09-17T04:46:47.405Z,93.92
2022-09-17T04:47:49.116Z,93.88
2022-09-17T04:48:50.524Z,93.71
2022-09-17T04:49:52.018Z,93.98
2022-09-17T04:50:53.418Z,93.94
2022-09-17T04:51:56.203Z,94.15
2022-09-17T04:52:57.607Z,94.06
2022-09-17T04:53:59.052Z,93.78
2022-09-17T04:55:00.472Z,93.46
2022-09-17T04:56:02.322Z,93.63
2022-09-17T04:57:04.077Z,93.71
2022-09-17T04:58:05.723Z,93.82
2022-09-17T04:59:07.321Z,93.68
2022-09-17T05:00:10.818Z,93.65
2022-09-17T05:01:12.317Z,93.49
2022-09-17T05:02:14.418Z,93.46
2022-09-17T05:03:15.983Z,93.30
2022-09-17T05:04:17.451Z,93.28
2022-09-17T05:05:19.961Z,93.32
2022-09-17T05:06:21.358Z,93.33
2022-09-17T05:07:24.184Z,93.44
2022-09-17T05:08:25.592Z,93.77
2022-09-17T05:09:27.018Z,94.05
2022-09-17T05:10:28.461Z,93.88
2022-09-17T05:11:29.908Z,93.95
2022-09-17T05:12:34.464Z,94.31
2022-09-17T05:13:36.097Z,94.20
2022-09-17T05:14:37.482Z,93.88
2022-09-17T05:15:38.922Z,94.16
2022-09-17T05:16:40.301Z,94.05
2022-09-17T05:17:41.742Z,94.11
2022-09-17T05:18:43.183Z,94.21
2022-09-17T05:19:44.564Z,93.82
2022-09-17T05:20:45.967Z,93.91
2022-09-17T05:21:47.367Z,93.91
2022-09-17T05:22:51.750Z,93.39
2022-09-17T05:23:53.155Z,93.41
2022-09-17T05:24:54.590Z,93.68
2022-09-17T05:25:58.205Z,93.76
2022-09-17T05:26:59.603Z,94.19
2022-09-17T05:28:01.368Z,94.21
2022-09-17T05:29:02.978Z,94.54
2022-09-17T05:30:05.537Z,94.32
2022-09-17T05:31:07.226Z,94.19
2022-09-17T05:32:08.663Z,94.47
2022-09-17T05:33:10.096Z,94.81
2022-09-17T05:34:11.517Z,94.65
2022-09-17T05:35:13.013Z,95.06
2022-09-17T05:36:14.421Z,95.00
2022-09-17T05:37:15.812Z,94.56
2022-09-17T05:38:18.671Z,94.37
2022-09-17T05:39:20.180Z,94.33
2022-09-17T05:40:21.681Z,94.51
2022-09-17T05:41:23.129Z,94.46
2022-09-17T05:42:24.528Z,95.00
2022-09-17T05:43:25.929Z,95.16
2022-09-17T05:44:27.310Z,95.04
2022-09-17T05:45:29.487Z,94.95
2022-09-17T05:46:30.984Z,94.48
2022-09-17T05:47:32.376Z,95.12
2022-09-17T05:48:34.019Z,95.01
2022-09-17T05:49:35.458Z,94.85
2022-09-17T05:50:36.916Z,94.23
2022-09-17T05:51:38.475Z,94.98
2022-09-17T05:52:39.874Z,94.93
2022-09-17T05:53:42.635Z,94.83
2022-09-17T05:54:44.036Z,94.41
2022-09-17T05:55:45.466Z,94.14
2022-09-17T05:56:46.903Z,94.79
2022-09-17T05:57:48.425Z,94.64
2022-09-17T05:58:49.918Z,94.79
2022-09-17T05:59:51.392Z,94.29
2022-09-17T06:00:53.301Z,94.81
2022-09-17T06:01:54.762Z,94.76
2022-09-17T06:02:57.251Z,95.19
2022-09-17T06:03:58.698Z,94.52
2022-09-17T06:05:00.104Z,94.22
2022-09-17T06:06:01.505Z,94.33
2022-09-17T06:07:04.721Z,94.03
2022-09-17T06:08:06.510Z,94.59
2022-09-17T06:09:09.864Z,93.48
2022-09-17T06:10:11.261Z,93.67
2022-09-17T06:11:12.788Z,93.20
2022-09-17T06:12:14.232Z,92.37
2022-09-17T06:13:16.048Z,93.27
2022-09-17T06:14:17.464Z,93.28
2022-09-17T06:15:18.848Z,93.41
2022-09-17T06:16:21.052Z,93.01
2022-09-17T06:17:22.511Z,93.17
2022-09-17T06:18:23.965Z,93.10
2022-09-17T06:19:25.380Z,93.37
2022-09-17T06:20:26.823Z,93.35
2022-09-17T06:21:28.260Z,93.26
2022-09-17T06:22:29.659Z,93.00
2022-09-17T06:23:32.682Z,92.48
2022-09-17T06:24:35.410Z,91.96
2022-09-17T06:25:36.823Z,92.06
2022-09-17T06:26:38.222Z,92.15
2022-09-17T06:27:39.803Z,91.17
2022-09-17T06:28:41.982Z,91.92
2022-09-17T06:29:43.507Z,91.65
2022-09-17T06:30:44.915Z,91.13
2022-09-17T06:31:47.854Z,90.65
2022-09-17T06:32:49.290Z,90.75
2022-09-17T06:33:50.707Z,90.84
2022-09-17T06:34:52.120Z,91.25
2022-09-17T06:35:56.682Z,91.92
2022-09-17T06:36:58.074Z,91.53
2022-09-17T06:37:59.475Z,91.32
2022-09-17T06:39:01.133Z,90.56
2022-09-17T06:40:04.331Z,90.45
2022-09-17T06:41:05.885Z,90.81
2022-09-17T06:42:07.444Z,91.31
2022-09-17T06:43:08.823Z,91.12
2022-09-17T06:44:10.233Z,91.23
2022-09-17T06:45:16.381Z,92.23
2022-09-17T06:46:18.255Z,91.53
2022-09-17T06:47:20.259Z,91.45
2022-09-17T06:48:22.543Z,91.59
2022-09-17T06:49:24.005Z,91.85
2022-09-17T06:50:25.605Z,91.14
2022-09-17T06:51:27.066Z,91.18
2022-09-17T06:52:28.480Z,91.22
2022-09-17T06:53:30.408Z,91.28
2022-09-17T06:54:31.939Z,90.76
2022-09-17T06:55:35.472Z,91.42
2022-09-17T06:56:36.843Z,91.21
2022-09-17T06:57:38.219Z,90.66
2022-09-17T06:58:39.624Z,90.50
2022-09-17T06:59:41.011Z,89.71
2022-09-17T07:00:42.501Z,89.30
2022-09-17T07:01:43.997Z,88.86
2022-09-17T07:02:55.346Z,89.89
2022-09-17T07:03:56.781Z,89.91
2022-09-17T07:04:58.178Z,89.54
2022-09-17T07:06:00.065Z,88.77
2022-09-17T07:07:01.499Z,88.84
2022-09-17T07:08:03.839Z,87.71
2022-09-17T07:09:09.096Z,88.19
2022-09-17T07:10:12.209Z,88.50
2022-09-17T07:11:15.019Z,88.29
2022-09-17T07:12:16.419Z,87.95
2022-09-17T07:13:17.812Z,87.94
2022-09-17T07:14:19.224Z,86.93
2022-09-17T07:15:20.650Z,87.83
2022-09-17T07:16:22.134Z,87.34
2022-09-17T07:17:23.588Z,88.12
2022-09-17T07:18:25.731Z,87.28
2022-09-17T07:19:27.145Z,87.80
2022-09-17T07:20:28.527Z,86.73
2022-09-17T07:21:30.017Z,86.78
2022-09-17T07:22:31.406Z,87.51
2022-09-17T07:23:34.294Z,86.99
2022-09-17T07:24:35.670Z,87.20
2022-09-17T07:25:37.092Z,87.17
2022-09-17T07:26:39.923Z,86.95
2022-09-17T07:27:41.320Z,87.44
2022-09-17T07:28:43.657Z,87.60
2022-09-17T07:29:45.071Z,86.11
2022-09-17T07:30:46.719Z,86.05
2022-09-17T07:31:48.132Z,87.46
2022-09-17T07:32:49.539Z,87.14
2022-09-17T07:33:50.973Z,87.21
2022-09-17T07:34:52.361Z,86.39
2022-09-17T07:35:54.380Z,87.11
2022-09-17T07:36:55.802Z,85.73
2022-09-17T07:37:57.213Z,85.96
2022-09-17T07:38:58.630Z,86.33
2022-09-17T07:40:00.120Z,87.03
2022-09-17T07:41:03.521Z,83.96
2022-09-17T07:42:06.586Z,84.24
2022-09-17T07:43:07.975Z,85.00
2022-09-17T07:44:09.385Z,85.83
2022-09-17T07:45:10.952Z,85.43
2022-09-17T07:46:14.953Z,83.91
2022-09-17T07:47:16.412Z,84.62
2022-09-17T07:48:17.789Z,86.74
2022-09-17T07:49:19.187Z,84.92
2022-09-17T07:50:20.580Z,86.34
2022-09-17T07:51:24.118Z,86.06
2022-09-17T07:52:25.480Z,85.56
2022-09-17T07:53:27.441Z,86.08
2022-09-17T07:54:29.064Z,86.56
2022-09-17T07:55:30.514Z,86.40
2022-09-17T07:56:31.910Z,85.05
2022-09-17T07:57:34.678Z,85.85
2022-09-17T07:58:36.114Z,85.92
2022-09-17T07:59:37.495Z,84.74
2022-09-17T08:00:38.921Z,85.89
2022-09-17T08:01:40.459Z,85.45
2022-09-17T08:02:42.088Z,85.59
2022-09-17T08:03:48.663Z,83.61
2022-09-17T08:04:50.044Z,84.41
2022-09-17T08:05:51.438Z,86.30
2022-09-17T08:06:52.891Z,84.25
2022-09-17T08:07:55.423Z,85.77
2022-09-17T08:08:58.128Z,85.84
2022-09-17T08:09:59.504Z,85.20
2022-09-17T08:11:01.592Z,84.66
2022-09-17T08:12:03.065Z,85.28
2022-09-17T08:13:06.543Z,85.15
2022-09-17T08:14:10.681Z,85.01
2022-09-17T08:15:12.086Z,84.98
2022-09-17T08:16:13.562Z,85.46
2022-09-17T08:17:15.109Z,84.88
2022-09-17T08:18:16.554Z,85.23
2022-09-17T08:19:17.954Z,85.68
2022-09-17T08:20:19.418Z,84.45
2022-09-17T08:21:21.238Z,84.33
2022-09-17T08:22:22.654Z,85.24
2022-09-17T08:23:24.733Z,84.05
2022-09-17T08:24:26.460Z,84.70
2022-09-17T08:25:27.894Z,85.48
2022-09-17T08:26:29.331Z,84.63
2022-09-17T08:27:31.318Z,83.18
2022-09-17T08:28:35.071Z,84.87
2022-09-17T08:29:36.457Z,84.58
2022-09-17T08:30:37.869Z,84.91
2022-09-17T08:31:39.516Z,83.46
2022-09-17T08:32:40.946Z,83.29
2022-09-17T08:33:43.210Z,84.19
2022-09-17T08:34:44.587Z,84.98
2022-09-17T08:35:51.149Z,86.28
2022-09-17T08:36:52.611Z,86.69
2022-09-17T08:37:54.579Z,84.71
2022-09-17T08:38:56.253Z,86.98
2022-09-17T08:39:57.947Z,87.09
2022-09-17T08:41:17.281Z,88.00
2022-09-17T08:42:26.530Z,87.03
2022-09-17T08:43:30.484Z,88.37
2022-09-17T08:44:41.195Z,88.29
2022-09-17T08:45:42.876Z,89.24
2022-09-17T08:46:47.522Z,88.75
2022-09-17T08:47:49.795Z,88.91
2022-09-17T08:49:01.436Z,89.06
2022-09-17T08:50:06.163Z,89.38
2022-09-17T08:51:21.824Z,89.05
2022-09-17T08:53:05.054Z,89.45
2022-09-17T08:54:16.196Z,89.73
2022-09-17T08:55:28.387Z,90.55
2022-09-17T08:56:34.001Z,90.08
2022-09-17T08:57:44.079Z,89.60
2022-09-17T08:59:08.653Z,91.65
2022-09-17T09:00:13.562Z,92.95
2022-09-17T09:01:25.400Z,93.72
2022-09-17T09:02:40.489Z,94.47
2022-09-17T09:03:56.592Z,95.52
2022-09-17T09:05:02.662Z,93.69
2022-09-17T09:06:08.572Z,93.43
2022-09-17T09:07:16.584Z,93.36
2022-09-17T09:08:33.805Z,93.93
2022-09-17T09:09:39.798Z,93.41
2022-09-17T09:10:48.203Z,93.82
2022-09-17T09:12:00.823Z,93.98
2022-09-17T09:13:04.201Z,93.28
2022-09-17T09:14:13.806Z,93.64
2022-09-17T09:15:28.576Z,94.31
2022-09-17T09:16:33.771Z,94.02
2022-09-17T09:17:45.339Z,94.67
2022-09-17T09:18:49.668Z,95.71
2022-09-17T09:19:51.175Z,93.97
2022-09-17T09:20:54.655Z,93.90
2022-09-17T09:22:03.444Z,91.96
2022-09-17T09:23:13.012Z,92.11
2022-09-17T09:24:22.853Z,93.00
2022-09-17T09:25:26.698Z,92.94
2022-09-17T09:26:42.388Z,92.55
2022-09-17T09:27:54.555Z,90.20
2022-09-17T09:29:13.072Z,91.65
2022-09-17T09:30:16.293Z,91.75
2022-09-17T09:31:34.536Z,91.66
2022-09-17T09:32:50.477Z,90.34
2022-09-17T09:33:52.192Z,91.51
2022-09-17T09:34:55.672Z,90.23
2022-09-17T09:35:57.090Z,88.81
2022-09-17T09:37:09.965Z,90.46
2022-09-17T09:38:22.464Z,89.08
2022-09-17T09:39:29.225Z,89.43
2022-09-17T09:40:36.677Z,88.79
2022-09-17T09:41:43.499Z,90.48
2022-09-17T09:42:46.140Z,91.49
2022-09-17T09:44:05.359Z,89.48
2022-09-17T09:45:14.989Z,92.51
2022-09-17T09:46:34.865Z,91.10
2022-09-17T09:47:54.784Z,91.16
2022-09-17T09:49:07.624Z,90.08
2022-09-17T09:50:24.301Z,90.01
2022-09-17T09:51:36.175Z,90.71
2022-09-17T09:52:50.964Z,91.93
2022-09-17T09:54:08.530Z,92.18
2022-09-17T09:55:39.715Z,94.40
2022-09-17T09:56:53.561Z,93.70
2022-09-17T09:58:03.011Z,94.27
2022-09-17T09:59:07.413Z,94.04
2022-09-17T10:00:29.242Z,94.25
2022-09-17T10:01:33.849Z,94.75
2022-09-17T10:02:35.547Z,93.22
2022-09-17T10:03:40.122Z,92.75
2022-09-17T10:04:41.525Z,93.75
2022-09-17T10:05:56.808Z,94.16
2022-09-17T10:07:02.564Z,92.75
2022-09-17T10:08:11.613Z,92.79
2022-09-17T10:09:14.949Z,93.40
2022-09-17T10:10:16.352Z,93.67
2022-09-17T10:11:21.548Z,92.08
2022-09-17T10:12:22.962Z,89.74
2022-09-17T10:13:25.565Z,91.89
2022-09-17T10:14:28.805Z,92.23
2022-09-17T10:15:30.181Z,92.08
2022-09-17T10:16:33.004Z,88.58
2022-09-17T10:17:34.547Z,88.83
2022-09-17T10:18:35.931Z,87.93
2022-09-17T10:19:37.416Z,88.07
2022-09-17T10:20:49.322Z,89.83
2022-09-17T10:21:51.340Z,91.87
2022-09-17T10:22:52.815Z,92.77
2022-09-17T10:23:54.446Z,89.28
2022-09-17T10:24:59.095Z,88.89
2022-09-17T10:26:00.642Z,87.88
2022-09-17T10:27:05.581Z,88.50
2022-09-17T10:28:29.311Z,87.28
2022-09-17T10:29:31.543Z,88.65
2022-09-17T10:30:34.807Z,86.91
2022-09-17T10:31:48.542Z,87.10
2022-09-17T10:33:15.980Z,84.87
2022-09-17T10:34:22.218Z,86.73
2022-09-17T10:35:27.593Z,85.44
2022-09-17T10:36:47.072Z,82.50
2022-09-17T10:37:50.334Z,83.75
2022-09-17T10:38:51.742Z,84.73
2022-09-17T10:39:53.189Z,84.49
2022-09-17T10:41:09.427Z,83.26
2022-09-17T10:42:14.136Z,86.18
2022-09-17T10:43:19.251Z,85.43
2022-09-17T10:44:22.944Z,85.15
2022-09-17T10:45:25.699Z,85.12
2022-09-17T10:46:31.194Z,85.94
2022-09-17T10:47:37.206Z,82.49
2022-09-17T10:48:42.733Z,82.13
2022-09-17T10:49:47.915Z,82.14
2022-09-17T10:50:50.775Z,84.46
2022-09-17T10:51:52.284Z,85.19
2022-09-17T10:52:56.224Z,84.25
2022-09-17T10:54:19.756Z,84.59
2022-09-17T10:55:30.385Z,84.68
2022-09-17T10:56:35.460Z,83.02
2022-09-17T10:58:03.006Z,81.96
2022-09-17T10:59:26.588Z,83.39
2022-09-17T11:00:33.661Z,84.75
2022-09-17T11:01:47.958Z,79.89
2022-09-17T11:03:22.007Z,82.90
2022-09-17T11:04:33.672Z,81.32
2022-09-17T11:05:50.402Z,81.85
2022-09-17T11:07:17.639Z,80.86
2022-09-17T11:08:26.187Z,80.38
2022-09-17T11:09:36.860Z,82.66
2022-09-17T11:10:44.891Z,81.29
2022-09-17T11:12:00.799Z,79.46
2022-09-17T11:13:17.766Z,78.48
2022-09-17T11:14:35.116Z,77.37
2022-09-17T11:15:55.992Z,76.02
2022-09-17T11:17:07.447Z,77.19
2022-09-17T11:18:20.345Z,81.42
2022-09-17T11:19:32.335Z,79.85
2022-09-17T11:20:50.303Z,79.41
2022-09-17T11:22:01.416Z,79.23
2022-09-17T11:23:17.947Z,80.42
2022-09-17T11:24:49.176Z,79.94
2022-09-17T11:26:00.260Z,80.09
2022-09-17T11:27:11.957Z,79.93
2022-09-17T11:28:32.058Z,80.12
2022-09-17T11:29:48.998Z,78.94
2022-09-17T11:31:02.840Z,78.83
2022-09-17T11:32:13.719Z,80.55
2022-09-17T11:33:44.971Z,80.08
2022-09-17T11:34:53.926Z,80.73
2022-09-17T11:35:59.509Z,81.20
2022-09-17T11:37:09.304Z,82.09
2022-09-17T11:38:16.021Z,82.56
2022-09-17T11:39:22.827Z,81.86
2022-09-17T11:40:28.222Z,83.37
2022-09-17T11:41:34.377Z,84.37
2022-09-17T11:42:41.664Z,84.74
2022-09-17T11:43:47.207Z,83.70
2022-09-17T11:44:53.368Z,81.54
2022-09-17T11:46:02.579Z,82.21
2022-09-17T11:47:10.382Z,82.25
2022-09-17T11:48:16.791Z,83.29
2022-09-17T11:49:28.280Z,80.79
2022-09-17T11:50:35.024Z,79.40
2022-09-17T11:51:41.346Z,81.33
2022-09-17T11:52:45.657Z,78.74
2022-09-17T11:53:52.163Z,77.91
2022-09-17T11:55:00.021Z,78.58
2022-09-17T11:56:05.672Z,78.74
2022-09-17T11:57:13.744Z,80.56
2022-09-17T11:58:25.421Z,78.45
2022-09-17T11:59:34.973Z,79.22
2022-09-17T12:00:44.590Z,81.11
2022-09-17T12:01:52.160Z,79.27
2022-09-17T12:03:00.118Z,79.28
2022-09-17T12:04:15.374Z,78.87
2022-09-17T12:05:20.705Z,75.53
2022-09-17T12:06:44.752Z,74.12
2022-09-17T12:07:52.727Z,75.19
2022-09-17T12:09:00.776Z,72.57
2022-09-17T12:10:18.476Z,74.39
2022-09-17T12:11:23.116Z,75.85
2022-09-17T12:12:47.620Z,75.73
2022-09-17T12:13:51.746Z,77.02
2022-09-17T12:14:56.951Z,78.71
2022-09-17T12:16:08.191Z,79.26
2022-09-17T12:17:12.420Z,75.98
2022-09-17T12:18:32.363Z,76.78
2022-09-17T12:19:40.243Z,75.56
2022-09-17T12:20:47.709Z,75.84
2022-09-17T12:21:51.554Z,76.00
2022-09-17T12:22:55.515Z,75.18
2022-09-17T12:24:03.397Z,75.52
2022-09-17T12:25:05.881Z,75.01
2022-09-17T12:26:20.926Z,73.04
2022-09-17T12:27:34.659Z,71.28
2022-09-17T12:28:43.881Z,72.57
2022-09-17T12:30:03.472Z,76.45
2022-09-17T12:31:14.336Z,73.39
2022-09-17T12:32:41.668Z,73.51
2022-09-17T12:33:51.025Z,73.84
2022-09-17T12:34:58.291Z,75.52
2022-09-17T12:36:28.307Z,72.80
2022-09-17T12:37:40.648Z,72.57
2022-09-17T12:39:08.883Z,73.62
2022-09-17T12:40:21.601Z,72.71
2022-09-17T12:41:31.122Z,69.35
2022-09-17T12:42:56.720Z,70.49
2022-09-17T12:44:15.502Z,71.35
2022-09-17T12:45:41.460Z,72.92
2022-09-17T12:46:55.987Z,76.50
2022-09-17T12:48:10.130Z,79.01
2022-09-17T12:49:32.560Z,81.03
2022-09-17T12:50:47.285Z,81.10
2022-09-17T12:52:01.223Z,82.87
2022-09-17T12:53:22.010Z,82.92
2022-09-17T12:54:45.341Z,82.27
2022-09-17T12:56:02.044Z,81.43
2022-09-17T12:57:11.223Z,82.74
2022-09-17T12:58:28.156Z,81.17
2022-09-17T12:59:32.649Z,79.79
2022-09-17T13:00:40.371Z,81.19
2022-09-17T13:01:49.291Z,79.43
2022-09-17T13:02:58.361Z,78.38
2022-09-17T13:04:11.759Z,78.30
2022-09-17T13:06:03.704Z,77.17
2022-09-17T13:07:29.265Z,77.91
2022-09-17T13:08:56.625Z,77.85
2022-09-17T13:10:22.493Z,76.94
2022-09-17T13:11:51.196Z,76.96
2022-09-17T13:12:57.846Z,76.24
2022-09-17T13:14:06.762Z,75.89
2022-09-17T13:15:38.997Z,76.97
2022-09-17T13:16:45.249Z,75.79
2022-09-17T13:18:12.767Z,76.77
2022-09-17T13:19:25.669Z,77.50
2022-09-17T13:20:32.684Z,78.48
2022-09-17T13:21:40.445Z,76.27
2022-09-17T13:22:46.482Z,76.29
2022-09-17T13:23:49.777Z,76.13
2022-09-17T13:25:04.236Z,79.06
2022-09-17T13:26:06.914Z,74.60
2022-09-17T13:27:21.109Z,74.89
2022-09-17T13:28:36.787Z,75.96
2022-09-17T13:29:57.997Z,76.44
2022-09-17T13:31:00.901Z,73.88
2022-09-17T13:32:02.485Z,73.33
2022-09-17T13:33:03.908Z,74.41
2022-09-17T13:34:30.110Z,73.66
2022-09-17T13:35:49.505Z,73.92
2022-09-17T13:36:51.652Z,74.66
2022-09-17T13:37:57.583Z,74.33
2022-09-17T13:38:59.803Z,71.66
2022-09-17T13:40:02.468Z,71.48
2022-09-17T13:41:18.693Z,73.96
2022-09-17T13:42:23.047Z,73.26
2022-09-17T13:43:24.920Z,73.76
2022-09-17T13:44:26.378Z,72.97
2022-09-17T13:45:28.298Z,74.04
2022-09-17T13:46:30.567Z,76.51
2022-09-17T13:47:33.495Z,74.40
2022-09-17T13:48:37.685Z,74.01
2022-09-17T13:49:45.541Z,73.42
2022-09-17T13:50:46.976Z,74.52
2022-09-17T13:51:53.162Z,73.19
2022-09-17T13:52:57.983Z,75.40
2022-09-17T13:54:02.581Z,74.91
2022-09-17T13:55:05.683Z,73.96
2022-09-17T13:56:31.253Z,74.81
2022-09-17T13:57:43.660Z,73.81
2022-09-17T13:58:46.159Z,74.40
2022-09-17T13:59:56.563Z,75.84
2022-09-17T14:01:00.339Z,74.87
2022-09-17T14:02:34.006Z,74.96
2022-09-17T14:03:55.296Z,75.60
2022-09-17T14:05:30.912Z,76.12
2022-09-17T14:06:49.902Z,77.57
2022-09-17T14:08:05.695Z,80.90
2022-09-17T14:09:40.485Z,82.65
2022-09-17T14:10:43.991Z,84.08
2022-09-17T14:11:45.429Z,84.84
2022-09-17T14:13:00.762Z,85.60
2022-09-17T14:14:39.823Z,87.10
2022-09-17T14:16:01.070Z,89.13